sensor_id;sensor_type;location;lat;lon;timestamp;P1;durP1;ratioP1;P2;durP2;ratioP2
13605;SDS011;6874;52.084;5.090;2022-09-03T00:00:27;18.13;;;17.57;;
13605;SDS011;6874;52.084;5.090;2022-09-03T00:03:04;24.90;;;24.10;;
13605;SDS011;6874;52.084;5.090;2022-09-03T00:05:39;24.87;;;24.07;;
13605;SDS011;6874;52.084;5.090;2022-09-03T00:08:30;25.43;;;24.63;;
13605;SDS011;6874;52.084;5.090;2022-09-03T00:11:21;23.07;;;22.37;;
13605;SDS011;6874;52.084;5.090;2022-09-03T00:14:06;23.17;;;22.47;;
13605;SDS011;6874;52.084;5.090;2022-09-03T00:16:47;25.13;;;24.33;;
13605;SDS011;6874;52.084;5.090;2022-09-03T00:19:17;26.13;;;25.33;;
13605;SDS011;6874;52.084;5.090;2022-09-03T00:21:50;25.17;;;24.37;;
13605;SDS011;6874;52.084;5.090;2022-09-03T00:24:32;25.37;;;24.57;;
13605;SDS011;6874;52.084;5.090;2022-09-03T00:27:02;24.97;;;24.17;;
13605;SDS011;6874;52.084;5.090;2022-09-03T00:29:35;26.80;;;26.00;;
13605;SDS011;6874;52.084;5.090;2022-09-03T00:32:07;24.90;;;24.10;;
13605;SDS011;6874;52.084;5.090;2022-09-03T00:34:39;25.53;;;24.73;;
13605;SDS011;6874;52.084;5.090;2022-09-03T00:37:07;27.63;;;26.73;;
13605;SDS011;6874;52.084;5.090;2022-09-03T00:39:37;24.07;;;23.33;;
13605;SDS011;6874;52.084;5.090;2022-09-03T00:42:12;25.90;;;25.10;;
13605;SDS011;6874;52.084;5.090;2022-09-03T00:45:22;20.10;;;19.50;;
13605;SDS011;6874;52.084;5.090;2022-09-03T00:48:05;21.67;;;20.97;;
13605;SDS011;6874;52.084;5.090;2022-09-03T00:56:03;25.87;;;25.07;;
13605;SDS011;6874;52.084;5.090;2022-09-03T01:01:56;22.17;;;21.47;;
13605;SDS011;6874;52.084;5.090;2022-09-03T01:04:38;24.00;;;23.23;;
13605;SDS011;6874;52.084;5.090;2022-09-03T01:07:27;24.60;;;23.80;;
13605;SDS011;6874;52.084;5.090;2022-09-03T01:10:25;24.40;;;23.63;;
13605;SDS011;6874;52.084;5.090;2022-09-03T01:14:04;22.60;;;21.90;;
13605;SDS011;6874;52.084;5.090;2022-09-03T01:21:34;23.63;;;22.90;;
13605;SDS011;6874;52.084;5.090;2022-09-03T01:27:45;19.13;;;18.53;;
13605;SDS011;6874;52.084;5.090;2022-09-03T01:30:13;18.87;;;18.27;;
13605;SDS011;6874;52.084;5.090;2022-09-03T01:38:12;18.53;;;17.93;;
13605;SDS011;6874;52.084;5.090;2022-09-03T01:41:29;18.00;;;17.47;;
13605;SDS011;6874;52.084;5.090;2022-09-03T01:46:45;17.27;;;16.77;;
13605;SDS011;6874;52.084;5.090;2022-09-03T01:52:24;16.37;;;15.87;;
13605;SDS011;6874;52.084;5.090;2022-09-03T01:55:00;14.20;;;13.80;;
13605;SDS011;6874;52.084;5.090;2022-09-03T02:00:16;14.43;;;14.03;;
13605;SDS011;6874;52.084;5.090;2022-09-03T02:02:44;14.03;;;13.63;;
13605;SDS011;6874;52.084;5.090;2022-09-03T02:05:17;15.17;;;14.67;;
13605;SDS011;6874;52.084;5.090;2022-09-03T02:07:57;13.07;;;12.67;;
13605;SDS011;6874;52.084;5.090;2022-09-03T02:10:47;13.63;;;13.23;;
13605;SDS011;6874;52.084;5.090;2022-09-03T02:13:24;12.90;;;12.50;;
13605;SDS011;6874;52.084;5.090;2022-09-03T02:15:52;13.10;;;12.70;;
13605;SDS011;6874;52.084;5.090;2022-09-03T02:18:23;13.03;;;12.63;;
13605;SDS011;6874;52.084;5.090;2022-09-03T02:20:58;12.07;;;11.70;;
13605;SDS011;6874;52.084;5.090;2022-09-03T02:23:24;13.00;;;12.60;;
13605;SDS011;6874;52.084;5.090;2022-09-03T02:25:55;12.53;;;12.13;;
13605;SDS011;6874;52.084;5.090;2022-09-03T02:28:24;11.87;;;11.47;;
13605;SDS011;6874;52.084;5.090;2022-09-03T02:30:51;14.23;;;13.83;;
13605;SDS011;6874;52.084;5.090;2022-09-03T02:33:17;12.10;;;11.70;;
13605;SDS011;6874;52.084;5.090;2022-09-03T02:35:43;12.10;;;11.70;;
13605;SDS011;6874;52.084;5.090;2022-09-03T02:38:15;11.80;;;11.43;;
13605;SDS011;6874;52.084;5.090;2022-09-03T02:40:43;11.37;;;11.07;;
13605;SDS011;6874;52.084;5.090;2022-09-03T02:45:52;10.43;;;10.13;;
13605;SDS011;6874;52.084;5.090;2022-09-03T02:48:23;11.47;;;11.17;;
13605;SDS011;6874;52.084;5.090;2022-09-03T02:50:49;11.17;;;10.87;;
13605;SDS011;6874;52.084;5.090;2022-09-03T02:53:15;10.87;;;10.57;;
13605;SDS011;6874;52.084;5.090;2022-09-03T02:55:40;11.13;;;10.83;;
13605;SDS011;6874;52.084;5.090;2022-09-03T02:58:06;10.70;;;10.40;;
13605;SDS011;6874;52.084;5.090;2022-09-03T03:00:33;11.30;;;11.00;;
13605;SDS011;6874;52.084;5.090;2022-09-03T03:03:00;10.73;;;10.43;;
13605;SDS011;6874;52.084;5.090;2022-09-03T03:05:33;11.43;;;11.07;;
13605;SDS011;6874;52.084;5.090;2022-09-03T03:08:06;10.33;;;10.03;;
13605;SDS011;6874;52.084;5.090;2022-09-03T03:10:33;11.10;;;10.80;;
13605;SDS011;6874;52.084;5.090;2022-09-03T03:12:59;10.63;;;10.33;;
13605;SDS011;6874;52.084;5.090;2022-09-03T03:15:25;10.97;;;10.67;;
13605;SDS011;6874;52.084;5.090;2022-09-03T03:17:51;11.40;;;11.07;;
13605;SDS011;6874;52.084;5.090;2022-09-03T03:20:20;10.37;;;10.07;;
13605;SDS011;6874;52.084;5.090;2022-09-03T03:22:46;11.77;;;11.40;;
13605;SDS011;6874;52.084;5.090;2022-09-03T03:25:12;12.10;;;11.70;;
13605;SDS011;6874;52.084;5.090;2022-09-03T03:27:37;11.17;;;10.87;;
13605;SDS011;6874;52.084;5.090;2022-09-03T03:30:05;13.23;;;12.83;;
13605;SDS011;6874;52.084;5.090;2022-09-03T03:32:33;12.57;;;12.17;;
13605;SDS011;6874;52.084;5.090;2022-09-03T03:34:59;11.77;;;11.40;;
13605;SDS011;6874;52.084;5.090;2022-09-03T03:37:25;12.73;;;12.33;;
13605;SDS011;6874;52.084;5.090;2022-09-03T03:39:50;12.67;;;12.27;;
13605;SDS011;6874;52.084;5.090;2022-09-03T03:42:16;11.80;;;11.43;;
13605;SDS011;6874;52.084;5.090;2022-09-03T03:44:41;11.70;;;11.37;;
13605;SDS011;6874;52.084;5.090;2022-09-03T03:47:07;12.67;;;12.27;;
13605;SDS011;6874;52.084;5.090;2022-09-03T03:49:33;12.27;;;11.87;;
13605;SDS011;6874;52.084;5.090;2022-09-03T03:51:59;12.97;;;12.57;;
13605;SDS011;6874;52.084;5.090;2022-09-03T03:54:27;12.03;;;11.63;;
13605;SDS011;6874;52.084;5.090;2022-09-03T03:56:52;12.67;;;12.27;;
13605;SDS011;6874;52.084;5.090;2022-09-03T03:59:18;12.90;;;12.50;;
13605;SDS011;6874;52.084;5.090;2022-09-03T04:01:43;12.60;;;12.20;;
13605;SDS011;6874;52.084;5.090;2022-09-03T04:04:09;12.50;;;12.10;;
13605;SDS011;6874;52.084;5.090;2022-09-03T04:06:34;13.40;;;13.00;;
13605;SDS011;6874;52.084;5.090;2022-09-03T04:09:00;12.27;;;11.87;;
13605;SDS011;6874;52.084;5.090;2022-09-03T04:11:25;12.43;;;12.03;;
13605;SDS011;6874;52.084;5.090;2022-09-03T04:13:51;11.23;;;10.93;;
13605;SDS011;6874;52.084;5.090;2022-09-03T04:16:18;13.10;;;12.70;;
13605;SDS011;6874;52.084;5.090;2022-09-03T04:18:45;12.83;;;12.43;;
13605;SDS011;6874;52.084;5.090;2022-09-03T04:21:13;12.67;;;12.27;;
13605;SDS011;6874;52.084;5.090;2022-09-03T04:23:43;13.87;;;13.47;;
13605;SDS011;6874;52.084;5.090;2022-09-03T04:26:11;12.77;;;12.37;;
13605;SDS011;6874;52.084;5.090;2022-09-03T04:28:38;13.37;;;12.97;;
13605;SDS011;6874;52.084;5.090;2022-09-03T04:31:06;13.07;;;12.67;;
13605;SDS011;6874;52.084;5.090;2022-09-03T04:33:33;12.97;;;12.57;;
13605;SDS011;6874;52.084;5.090;2022-09-03T04:36:06;12.30;;;11.90;;
13605;SDS011;6874;52.084;5.090;2022-09-03T04:38:43;12.73;;;12.33;;
13605;SDS011;6874;52.084;5.090;2022-09-03T04:41:10;12.37;;;11.97;;
13605;SDS011;6874;52.084;5.090;2022-09-03T04:43:38;12.60;;;12.20;;
13605;SDS011;6874;52.084;5.090;2022-09-03T04:46:05;12.77;;;12.37;;
13605;SDS011;6874;52.084;5.090;2022-09-03T04:48:32;13.40;;;13.00;;
13605;SDS011;6874;52.084;5.090;2022-09-03T04:51:12;13.07;;;12.67;;
13605;SDS011;6874;52.084;5.090;2022-09-03T04:53:42;11.27;;;10.97;;
13605;SDS011;6874;52.084;5.090;2022-09-03T04:56:14;10.77;;;10.47;;
13605;SDS011;6874;52.084;5.090;2022-09-03T04:58:44;11.30;;;11.00;;
13605;SDS011;6874;52.084;5.090;2022-09-03T05:01:11;10.77;;;10.47;;
13605;SDS011;6874;52.084;5.090;2022-09-03T05:03:42;9.97;;;9.67;;
13605;SDS011;6874;52.084;5.090;2022-09-03T05:06:08;9.87;;;9.57;;
13605;SDS011;6874;52.084;5.090;2022-09-03T05:08:34;10.33;;;10.03;;
13605;SDS011;6874;52.084;5.090;2022-09-03T05:11:04;9.33;;;9.03;;
13605;SDS011;6874;52.084;5.090;2022-09-03T05:13:33;11.30;;;11.00;;
13605;SDS011;6874;52.084;5.090;2022-09-03T05:16:01;10.53;;;10.23;;
13605;SDS011;6874;52.084;5.090;2022-09-03T05:18:29;11.27;;;10.97;;
13605;SDS011;6874;52.084;5.090;2022-09-03T05:20:58;10.67;;;10.37;;
13605;SDS011;6874;52.084;5.090;2022-09-03T05:23:26;9.93;;;9.63;;
13605;SDS011;6874;52.084;5.090;2022-09-03T05:25:59;10.20;;;9.90;;
13605;SDS011;6874;52.084;5.090;2022-09-03T05:28:26;10.60;;;10.30;;
13605;SDS011;6874;52.084;5.090;2022-09-03T05:31:00;11.90;;;11.57;;
13605;SDS011;6874;52.084;5.090;2022-09-03T05:33:34;10.40;;;10.10;;
13605;SDS011;6874;52.084;5.090;2022-09-03T05:36:01;10.60;;;10.30;;
13605;SDS011;6874;52.084;5.090;2022-09-03T05:38:31;11.53;;;11.20;;
13605;SDS011;6874;52.084;5.090;2022-09-03T05:41:04;10.33;;;10.03;;
13605;SDS011;6874;52.084;5.090;2022-09-03T05:43:32;11.10;;;10.80;;
13605;SDS011;6874;52.084;5.090;2022-09-03T05:46:02;10.90;;;10.60;;
13605;SDS011;6874;52.084;5.090;2022-09-03T05:48:30;10.17;;;9.87;;
13605;SDS011;6874;52.084;5.090;2022-09-03T05:51:13;11.13;;;10.83;;
13605;SDS011;6874;52.084;5.090;2022-09-03T05:53:40;12.73;;;12.33;;
13605;SDS011;6874;52.084;5.090;2022-09-03T05:56:08;11.47;;;11.13;;
13605;SDS011;6874;52.084;5.090;2022-09-03T05:58:39;12.53;;;12.17;;
13605;SDS011;6874;52.084;5.090;2022-09-03T06:01:14;12.57;;;12.17;;
13605;SDS011;6874;52.084;5.090;2022-09-03T06:03:41;12.23;;;11.87;;
13605;SDS011;6874;52.084;5.090;2022-09-03T06:06:09;12.40;;;12.00;;
13605;SDS011;6874;52.084;5.090;2022-09-03T06:08:36;14.17;;;13.77;;
13605;SDS011;6874;52.084;5.090;2022-09-03T06:11:04;13.20;;;12.80;;
13605;SDS011;6874;52.084;5.090;2022-09-03T06:13:31;13.67;;;13.27;;
13605;SDS011;6874;52.084;5.090;2022-09-03T06:16:04;13.37;;;12.97;;
13605;SDS011;6874;52.084;5.090;2022-09-03T06:18:30;13.80;;;13.40;;
13605;SDS011;6874;52.084;5.090;2022-09-03T06:20:57;14.57;;;14.17;;
13605;SDS011;6874;52.084;5.090;2022-09-03T06:23:24;15.10;;;14.60;;
13605;SDS011;6874;52.084;5.090;2022-09-03T06:28:33;14.60;;;14.20;;
13605;SDS011;6874;52.084;5.090;2022-09-03T06:31:00;15.50;;;15.00;;
13605;SDS011;6874;52.084;5.090;2022-09-03T06:33:31;17.00;;;16.50;;
13605;SDS011;6874;52.084;5.090;2022-09-03T06:35:59;17.33;;;16.83;;
13605;SDS011;6874;52.084;5.090;2022-09-03T06:38:26;16.17;;;15.67;;
13605;SDS011;6874;52.084;5.090;2022-09-03T06:40:56;17.33;;;16.83;;
13605;SDS011;6874;52.084;5.090;2022-09-03T06:43:26;18.53;;;17.97;;
13605;SDS011;6874;52.084;5.090;2022-09-03T06:45:55;20.47;;;19.87;;
13605;SDS011;6874;52.084;5.090;2022-09-03T06:48:25;19.47;;;18.87;;
13605;SDS011;6874;52.084;5.090;2022-09-03T06:50:52;22.73;;;22.03;;
13605;SDS011;6874;52.084;5.090;2022-09-03T06:53:19;24.77;;;23.97;;
13605;SDS011;6874;52.084;5.090;2022-09-03T06:55:59;29.57;;;28.67;;
13605;SDS011;6874;52.084;5.090;2022-09-03T06:58:36;27.77;;;26.87;;
13605;SDS011;6874;52.084;5.090;2022-09-03T07:01:08;33.30;;;32.23;;
13605;SDS011;6874;52.084;5.090;2022-09-03T07:03:35;33.83;;;32.73;;
13605;SDS011;6874;52.084;5.090;2022-09-03T07:06:03;37.33;;;36.13;;
13605;SDS011;6874;52.084;5.090;2022-09-03T07:08:31;37.37;;;36.17;;
13605;SDS011;6874;52.084;5.090;2022-09-03T07:11:00;35.27;;;34.17;;
13605;SDS011;6874;52.084;5.090;2022-09-03T07:13:30;35.27;;;34.17;;
13605;SDS011;6874;52.084;5.090;2022-09-03T07:16:00;39.97;;;38.67;;
13605;SDS011;6874;52.084;5.090;2022-09-03T07:18:31;40.30;;;39.00;;
13605;SDS011;6874;52.084;5.090;2022-09-03T07:21:06;40.10;;;38.80;;
13605;SDS011;6874;52.084;5.090;2022-09-03T07:23:34;42.07;;;40.70;;
13605;SDS011;6874;52.084;5.090;2022-09-03T07:26:03;44.80;;;43.37;;
13605;SDS011;6874;52.084;5.090;2022-09-03T07:28:30;42.90;;;41.53;;
13605;SDS011;6874;52.084;5.090;2022-09-03T07:31:00;45.73;;;44.27;;
13605;SDS011;6874;52.084;5.090;2022-09-03T07:33:31;46.07;;;44.57;;
13605;SDS011;6874;52.084;5.090;2022-09-03T07:36:05;43.13;;;41.73;;
13605;SDS011;6874;52.084;5.090;2022-09-03T07:38:32;44.00;;;42.57;;
13605;SDS011;6874;52.084;5.090;2022-09-03T07:41:03;44.57;;;43.13;;
13605;SDS011;6874;52.084;5.090;2022-09-03T07:43:40;46.87;;;45.33;;
13605;SDS011;6874;52.084;5.090;2022-09-03T07:46:16;42.40;;;41.03;;
13605;SDS011;6874;52.084;5.090;2022-09-03T07:48:48;41.80;;;40.47;;
13605;SDS011;6874;52.084;5.090;2022-09-03T07:51:14;40.13;;;38.83;;
13605;SDS011;6874;52.084;5.090;2022-09-03T07:53:41;38.73;;;37.50;;
13605;SDS011;6874;52.084;5.090;2022-09-03T07:56:09;37.27;;;36.07;;
13605;SDS011;6874;52.084;5.090;2022-09-03T07:58:36;35.83;;;34.70;;
13605;SDS011;6874;52.084;5.090;2022-09-03T08:01:03;37.50;;;36.30;;
13605;SDS011;6874;52.084;5.090;2022-09-03T08:03:32;35.87;;;34.73;;
13605;SDS011;6874;52.084;5.090;2022-09-03T08:05:59;33.73;;;32.67;;
13605;SDS011;6874;52.084;5.090;2022-09-03T08:08:30;33.53;;;32.47;;
13605;SDS011;6874;52.084;5.090;2022-09-03T08:11:03;33.57;;;32.50;;
13605;SDS011;6874;52.084;5.090;2022-09-03T08:13:34;31.83;;;30.83;;
13605;SDS011;6874;52.084;5.090;2022-09-03T08:16:12;35.23;;;34.10;;
13605;SDS011;6874;52.084;5.090;2022-09-03T08:18:38;34.63;;;33.53;;
13605;SDS011;6874;52.084;5.090;2022-09-03T08:21:05;36.53;;;35.37;;
13605;SDS011;6874;52.084;5.090;2022-09-03T08:23:36;37.57;;;36.37;;
13605;SDS011;6874;52.084;5.090;2022-09-03T08:26:03;33.53;;;32.47;;
13605;SDS011;6874;52.084;5.090;2022-09-03T08:28:28;38.50;;;37.27;;
13605;SDS011;6874;52.084;5.090;2022-09-03T08:30:56;34.67;;;33.57;;
13605;SDS011;6874;52.084;5.090;2022-09-03T08:33:21;37.23;;;36.07;;
13605;SDS011;6874;52.084;5.090;2022-09-03T08:36:04;36.97;;;35.80;;
13605;SDS011;6874;52.084;5.090;2022-09-03T08:38:33;35.33;;;34.20;;
13605;SDS011;6874;52.084;5.090;2022-09-03T08:41:03;36.37;;;35.23;;
13605;SDS011;6874;52.084;5.090;2022-09-03T08:43:32;37.23;;;36.07;;
13605;SDS011;6874;52.084;5.090;2022-09-03T08:46:24;37.57;;;36.37;;
13605;SDS011;6874;52.084;5.090;2022-09-03T08:48:57;35.97;;;34.83;;
13605;SDS011;6874;52.084;5.090;2022-09-03T08:51:24;36.63;;;35.50;;
13605;SDS011;6874;52.084;5.090;2022-09-03T08:53:53;36.07;;;34.93;;
13605;SDS011;6874;52.084;5.090;2022-09-03T08:56:27;37.37;;;36.20;;
13605;SDS011;6874;52.084;5.090;2022-09-03T08:58:55;38.37;;;37.13;;
13605;SDS011;6874;52.084;5.090;2022-09-03T09:07:20;34.70;;;33.60;;
13605;SDS011;6874;52.084;5.090;2022-09-03T09:15:11;34.03;;;32.93;;
13605;SDS011;6874;52.084;5.090;2022-09-03T09:18:05;28.97;;;28.07;;
13605;SDS011;6874;52.084;5.090;2022-09-03T09:20:49;28.97;;;28.07;;
13605;SDS011;6874;52.084;5.090;2022-09-03T09:26:18;25.40;;;24.60;;
13605;SDS011;6874;52.084;5.090;2022-09-03T09:28:46;25.50;;;24.70;;
13605;SDS011;6874;52.084;5.090;2022-09-03T09:31:28;22.93;;;22.23;;
13605;SDS011;6874;52.084;5.090;2022-09-03T09:33:54;22.83;;;22.13;;
13605;SDS011;6874;52.084;5.090;2022-09-03T09:36:26;22.63;;;21.93;;
13605;SDS011;6874;52.084;5.090;2022-09-03T09:38:52;24.67;;;23.90;;
13605;SDS011;6874;52.084;5.090;2022-09-03T09:41:19;20.97;;;20.33;;
13605;SDS011;6874;52.084;5.090;2022-09-03T09:43:45;19.40;;;18.80;;
13605;SDS011;6874;52.084;5.090;2022-09-03T09:46:13;22.17;;;21.47;;
13605;SDS011;6874;52.084;5.090;2022-09-03T09:48:46;21.70;;;21.03;;
13605;SDS011;6874;52.084;5.090;2022-09-03T09:51:18;20.60;;;20.00;;
13605;SDS011;6874;52.084;5.090;2022-09-03T09:53:43;19.93;;;19.33;;
13605;SDS011;6874;52.084;5.090;2022-09-03T09:56:22;19.17;;;18.57;;
13605;SDS011;6874;52.084;5.090;2022-09-03T09:58:49;19.00;;;18.40;;
13605;SDS011;6874;52.084;5.090;2022-09-03T10:01:25;18.33;;;17.77;;
13605;SDS011;6874;52.084;5.090;2022-09-03T10:04:21;22.00;;;21.33;;
13605;SDS011;6874;52.084;5.090;2022-09-03T10:06:45;20.33;;;19.70;;
13605;SDS011;6874;52.084;5.090;2022-09-03T10:09:20;22.07;;;21.37;;
13605;SDS011;6874;52.084;5.090;2022-09-03T10:14:22;30.10;;;29.13;;
13605;SDS011;6874;52.084;5.090;2022-09-03T10:17:00;27.10;;;26.23;;
13605;SDS011;6874;52.084;5.090;2022-09-03T10:22:30;21.77;;;21.10;;
13605;SDS011;6874;52.084;5.090;2022-09-03T10:25:05;29.87;;;28.93;;
13605;SDS011;6874;52.084;5.090;2022-09-03T10:27:32;39.87;;;38.60;;
13605;SDS011;6874;52.084;5.090;2022-09-03T10:29:58;49.53;;;47.90;;
13605;SDS011;6874;52.084;5.090;2022-09-03T10:40:16;41.97;;;40.60;;
13605;SDS011;6874;52.084;5.090;2022-09-03T10:48:47;47.10;;;45.60;;
13605;SDS011;6874;52.084;5.090;2022-09-03T10:51:28;53.57;;;51.87;;
13605;SDS011;6874;52.084;5.090;2022-09-03T10:54:22;52.10;;;50.43;;
13605;SDS011;6874;52.084;5.090;2022-09-03T10:57:15;48.93;;;47.37;;
13605;SDS011;6874;52.084;5.090;2022-09-03T11:00:03;46.90;;;45.40;;
13605;SDS011;6874;52.084;5.090;2022-09-03T11:02:45;49.33;;;47.73;;
13605;SDS011;6874;52.084;5.090;2022-09-03T11:08:01;70.63;;;68.37;;
13605;SDS011;6874;52.084;5.090;2022-09-03T11:10:32;68.73;;;66.57;;
13605;SDS011;6874;52.084;5.090;2022-09-03T11:18:23;60.93;;;58.93;;
13605;SDS011;6874;52.084;5.090;2022-09-03T11:21:09;61.57;;;59.57;;
13605;SDS011;6874;52.084;5.090;2022-09-03T11:23:40;79.07;;;76.47;;
13605;SDS011;6874;52.084;5.090;2022-09-03T11:26:12;110.17;;;106.47;;
13605;SDS011;6874;52.084;5.090;2022-09-03T11:28:56;158.60;;;153.27;;
13605;SDS011;6874;52.084;5.090;2022-09-03T11:31:35;192.33;;;185.83;;
13605;SDS011;6874;52.084;5.090;2022-09-03T11:34:12;198.67;;;191.77;;
13605;SDS011;6874;52.084;5.090;2022-09-03T11:36:40;202.83;;;195.63;;
13605;SDS011;6874;52.084;5.090;2022-09-03T11:42:00;154.70;;;149.47;;
13605;SDS011;6874;52.084;5.090;2022-09-03T11:44:41;172.37;;;166.67;;
13605;SDS011;6874;52.084;5.090;2022-09-03T11:49:47;213.87;;;206.87;;
13605;SDS011;6874;52.084;5.090;2022-09-03T11:52:24;235.03;;;227.33;;
13605;SDS011;6874;52.084;5.090;2022-09-03T11:54:56;245.20;;;237.10;;
13605;SDS011;6874;52.084;5.090;2022-09-03T11:57:23;244.10;;;235.90;;
13605;SDS011;6874;52.084;5.090;2022-09-03T11:59:53;220.83;;;213.43;;
13605;SDS011;6874;52.084;5.090;2022-09-03T12:02:33;196.17;;;189.63;;
13605;SDS011;6874;52.084;5.090;2022-09-03T12:10:30;190.30;;;184.03;;
13605;SDS011;6874;52.084;5.090;2022-09-03T12:16:05;210.90;;;204.23;;
13605;SDS011;6874;52.084;5.090;2022-09-03T12:19:02;201.73;;;195.30;;
13605;SDS011;6874;52.084;5.090;2022-09-03T12:21:38;214.60;;;207.80;;
13605;SDS011;6874;52.084;5.090;2022-09-03T12:24:04;215.00;;;208.20;;
13605;SDS011;6874;52.084;5.090;2022-09-03T12:26:37;225.30;;;218.23;;
13605;SDS011;6874;52.084;5.090;2022-09-03T12:29:04;219.90;;;213.00;;
13605;SDS011;6874;52.084;5.090;2022-09-03T12:31:31;222.73;;;215.73;;
13605;SDS011;6874;52.084;5.090;2022-09-03T12:34:15;227.13;;;220.03;;
13605;SDS011;6874;52.084;5.090;2022-09-03T12:36:43;220.20;;;213.40;;
13605;SDS011;6874;52.084;5.090;2022-09-03T12:39:14;218.67;;;211.97;;
13605;SDS011;6874;52.084;5.090;2022-09-03T12:41:55;205.80;;;199.43;;
13605;SDS011;6874;52.084;5.090;2022-09-03T12:44:31;204.83;;;198.53;;
13605;SDS011;6874;52.084;5.090;2022-09-03T12:47:13;201.53;;;195.30;;
13605;SDS011;6874;52.084;5.090;2022-09-03T12:49:44;200.50;;;194.30;;
13605;SDS011;6874;52.084;5.090;2022-09-03T12:54:56;195.80;;;189.73;;
13605;SDS011;6874;52.084;5.090;2022-09-03T12:57:42;198.97;;;192.83;;
13605;SDS011;6874;52.084;5.090;2022-09-03T13:00:13;186.93;;;181.13;;
13605;SDS011;6874;52.084;5.090;2022-09-03T13:02:49;197.63;;;191.53;;
13605;SDS011;6874;52.084;5.090;2022-09-03T13:05:21;187.13;;;181.33;;
13605;SDS011;6874;52.084;5.090;2022-09-03T13:07:54;190.80;;;184.87;;
13605;SDS011;6874;52.084;5.090;2022-09-03T13:10:28;197.47;;;191.37;;
13605;SDS011;6874;52.084;5.090;2022-09-03T13:13:03;190.50;;;184.50;;
13605;SDS011;6874;52.084;5.090;2022-09-03T13:21:13;209.97;;;203.30;;
13605;SDS011;6874;52.084;5.090;2022-09-03T13:29:15;209.77;;;203.23;;
13605;SDS011;6874;52.084;5.090;2022-09-03T13:31:59;200.37;;;194.13;;
13605;SDS011;6874;52.084;5.090;2022-09-03T13:34:32;198.60;;;192.37;;
13605;SDS011;6874;52.084;5.090;2022-09-03T13:44:54;196.07;;;189.87;;
13605;SDS011;6874;52.084;5.090;2022-09-03T13:50:25;192.80;;;186.77;;
13605;SDS011;6874;52.084;5.090;2022-09-03T13:53:03;184.10;;;178.30;;
13605;SDS011;6874;52.084;5.090;2022-09-03T13:55:40;170.47;;;165.10;;
13605;SDS011;6874;52.084;5.090;2022-09-03T14:04:25;126.67;;;122.63;;
13605;SDS011;6874;52.084;5.090;2022-09-03T14:07:00;131.90;;;127.70;;
13605;SDS011;6874;52.084;5.090;2022-09-03T14:09:38;129.37;;;125.27;;
13605;SDS011;6874;52.084;5.090;2022-09-03T14:12:42;123.80;;;119.87;;
13605;SDS011;6874;52.084;5.090;2022-09-03T14:15:21;132.17;;;127.97;;
13605;SDS011;6874;52.084;5.090;2022-09-03T14:18:14;136.87;;;132.50;;
13605;SDS011;6874;52.084;5.090;2022-09-03T14:21:02;129.23;;;125.13;;
13605;SDS011;6874;52.084;5.090;2022-09-03T14:26:51;123.70;;;119.73;;
13605;SDS011;6874;52.084;5.090;2022-09-03T14:29:24;120.33;;;116.50;;
13605;SDS011;6874;52.084;5.090;2022-09-03T14:48:26;123.07;;;118.90;;
13605;SDS011;6874;52.084;5.090;2022-09-03T14:53:51;127.20;;;122.93;;
13605;SDS011;6874;52.084;5.090;2022-09-03T14:59:43;126.47;;;122.20;;
13605;SDS011;6874;52.084;5.090;2022-09-03T15:02:35;124.20;;;120.03;;
13605;SDS011;6874;52.084;5.090;2022-09-03T15:08:17;119.27;;;115.20;;
13605;SDS011;6874;52.084;5.090;2022-09-03T15:11:23;109.83;;;106.10;;
13605;SDS011;6874;52.084;5.090;2022-09-03T15:19:32;103.20;;;99.73;;
13605;SDS011;6874;52.084;5.090;2022-09-03T15:22:15;105.77;;;102.27;;
13605;SDS011;6874;52.084;5.090;2022-09-03T15:25:02;110.80;;;107.10;;
13605;SDS011;6874;52.084;5.090;2022-09-03T15:27:37;108.37;;;104.73;;
13605;SDS011;6874;52.084;5.090;2022-09-03T15:30:21;110.90;;;107.20;;
13605;SDS011;6874;52.084;5.090;2022-09-03T15:32:56;109.87;;;106.20;;
13605;SDS011;6874;52.084;5.090;2022-09-03T15:38:09;103.33;;;99.90;;
13605;SDS011;6874;52.084;5.090;2022-09-03T15:40:39;111.40;;;107.67;;
13605;SDS011;6874;52.084;5.090;2022-09-03T15:43:18;115.43;;;111.57;;
13605;SDS011;6874;52.084;5.090;2022-09-03T15:45:56;116.83;;;112.93;;
13605;SDS011;6874;52.084;5.090;2022-09-03T15:48:51;119.13;;;115.13;;
13605;SDS011;6874;52.084;5.090;2022-09-03T15:51:25;114.43;;;110.60;;
13605;SDS011;6874;52.084;5.090;2022-09-03T15:56:34;116.00;;;112.13;;
13605;SDS011;6874;52.084;5.090;2022-09-03T15:59:37;114.33;;;110.50;;
13605;SDS011;6874;52.084;5.090;2022-09-03T16:02:14;114.90;;;111.07;;
13605;SDS011;6874;52.084;5.090;2022-09-03T16:10:16;106.40;;;102.87;;
13605;SDS011;6874;52.084;5.090;2022-09-03T16:12:48;110.60;;;106.90;;
13605;SDS011;6874;52.084;5.090;2022-09-03T16:15:37;113.83;;;110.07;;
13605;SDS011;6874;52.084;5.090;2022-09-03T16:21:14;107.63;;;104.03;;
13605;SDS011;6874;52.084;5.090;2022-09-03T16:26:31;103.37;;;99.97;;
13605;SDS011;6874;52.084;5.090;2022-09-03T16:29:26;96.53;;;93.33;;
13605;SDS011;6874;52.084;5.090;2022-09-03T16:31:58;108.27;;;104.67;;
13605;SDS011;6874;52.084;5.090;2022-09-03T16:34:42;107.63;;;104.07;;
13605;SDS011;6874;52.084;5.090;2022-09-03T16:40:09;100.83;;;97.47;;
13605;SDS011;6874;52.084;5.090;2022-09-03T16:42:51;98.60;;;95.33;;
13605;SDS011;6874;52.084;5.090;2022-09-03T16:45:30;98.47;;;95.23;;
13605;SDS011;6874;52.084;5.090;2022-09-03T16:57:05;96.23;;;93.07;;
13605;SDS011;6874;52.084;5.090;2022-09-03T16:59:50;107.43;;;103.93;;
13605;SDS011;6874;52.084;5.090;2022-09-03T17:02:28;109.27;;;105.67;;
13605;SDS011;6874;52.084;5.090;2022-09-03T17:08:07;121.33;;;117.37;;
13605;SDS011;6874;52.084;5.090;2022-09-03T17:16:12;120.80;;;116.87;;
13605;SDS011;6874;52.084;5.090;2022-09-03T17:21:54;145.07;;;140.40;;
13605;SDS011;6874;52.084;5.090;2022-09-03T17:24:45;152.83;;;147.90;;
13605;SDS011;6874;52.084;5.090;2022-09-03T17:27:29;156.63;;;151.60;;
13605;SDS011;6874;52.084;5.090;2022-09-03T17:35:55;205.67;;;199.17;;
13605;SDS011;6874;52.084;5.090;2022-09-03T17:38:59;205.20;;;198.70;;
13605;SDS011;6874;52.084;5.090;2022-09-03T17:44:22;218.37;;;211.47;;
13605;SDS011;6874;52.084;5.090;2022-09-03T17:53:02;225.23;;;217.97;;
13605;SDS011;6874;52.084;5.090;2022-09-03T17:55:37;245.87;;;237.93;;
13605;SDS011;6874;52.084;5.090;2022-09-03T17:58:16;241.10;;;233.33;;
13605;SDS011;6874;52.084;5.090;2022-09-03T18:01:10;245.57;;;237.57;;
13605;SDS011;6874;52.084;5.090;2022-09-03T18:04:01;234.17;;;226.53;;
13605;SDS011;6874;52.084;5.090;2022-09-03T18:11:57;259.43;;;251.00;;
13605;SDS011;6874;52.084;5.090;2022-09-03T18:17:27;247.87;;;239.93;;
13605;SDS011;6874;52.084;5.090;2022-09-03T18:20:17;240.20;;;232.47;;
13605;SDS011;6874;52.084;5.090;2022-09-03T18:25:55;265.50;;;256.97;;
13605;SDS011;6874;52.084;5.090;2022-09-03T18:28:46;284.13;;;274.97;;
13605;SDS011;6874;52.084;5.090;2022-09-03T18:31:34;296.10;;;286.50;;
13605;SDS011;6874;52.084;5.090;2022-09-03T18:34:19;301.20;;;291.33;;
13605;SDS011;6874;52.084;5.090;2022-09-03T18:37:14;316.80;;;306.47;;
13605;SDS011;6874;52.084;5.090;2022-09-03T18:40:04;330.27;;;319.40;;
13605;SDS011;6874;52.084;5.090;2022-09-03T18:42:55;340.00;;;328.73;;
13605;SDS011;6874;52.084;5.090;2022-09-03T18:52:17;344.30;;;333.07;;
13605;SDS011;6874;52.084;5.090;2022-09-03T19:01:34;325.40;;;315.13;;